createdAt,value
2023-12-11T00:00:08.739Z,100458.06
2023-12-11T00:00:41.096Z,100463.88
2023-12-11T00:01:13.616Z,100454.34
2023-12-11T00:01:46.399Z,100457.91
2023-12-11T00:02:18.924Z,100450.91
2023-12-11T00:02:51.077Z,100452.56
2023-12-11T00:03:23.233Z,100461.09
2023-12-11T00:03:57.131Z,100451.63
2023-12-11T00:04:29.207Z,100456.81
2023-12-11T00:05:01.867Z,100447.22
2023-12-11T00:05:33.947Z,100455.19
2023-12-11T00:06:06.739Z,100467.09
2023-12-11T00:06:38.801Z,100455.06
2023-12-11T00:07:10.980Z,100464.66
2023-12-11T00:07:43.204Z,100462.91
2023-12-11T00:08:15.276Z,100470.91
2023-12-11T00:08:47.463Z,100458.78
2023-12-11T00:09:19.476Z,100457.06
2023-12-11T00:09:51.588Z,100454.50
2023-12-11T00:10:23.620Z,100461.34
2023-12-11T00:10:55.608Z,100451.94
2023-12-11T00:11:27.665Z,100455.66
2023-12-11T00:11:59.709Z,100456.38
2023-12-11T00:12:31.788Z,100453.69
2023-12-11T00:13:04.023Z,100447.88
2023-12-11T00:13:36.063Z,100458.81
2023-12-11T00:14:08.206Z,100450.91
2023-12-11T00:14:40.346Z,100459.47
2023-12-11T00:15:12.636Z,100460.38
2023-12-11T00:15:44.717Z,100450.06
2023-12-11T00:16:17.595Z,100456.22
2023-12-11T00:16:49.660Z,100448.66
2023-12-11T00:17:24.264Z,100457.97
2023-12-11T00:17:56.505Z,100447.47
2023-12-11T00:18:28.824Z,100443.84
2023-12-11T00:19:02.390Z,100448.94
2023-12-11T00:19:34.739Z,100442.91
2023-12-11T00:20:08.065Z,100439.41
2023-12-11T00:20:40.282Z,100441.16
2023-12-11T00:21:12.672Z,100445.50
2023-12-11T00:21:44.720Z,100444.59
2023-12-11T00:22:16.750Z,100445.50
2023-12-11T00:22:49.017Z,100448.97
2023-12-11T00:23:21.210Z,100448.97
2023-12-11T00:23:54.080Z,100444.00
2023-12-11T00:24:26.138Z,100445.69
2023-12-11T00:24:58.250Z,100439.59
2023-12-11T00:25:30.567Z,100435.31
2023-12-11T00:26:02.673Z,100438.81
2023-12-11T00:26:34.719Z,100430.09
2023-12-11T00:27:06.721Z,100429.88
2023-12-11T00:27:38.726Z,100436.69
2023-12-11T00:28:10.880Z,100435.31
2023-12-11T00:28:42.935Z,100435.69
2023-12-11T00:29:15.254Z,100431.38
2023-12-11T00:29:47.361Z,100434.53
2023-12-11T00:30:19.401Z,100438.69
2023-12-11T00:30:52.261Z,100438.75
2023-12-11T00:31:24.470Z,100431.84
2023-12-11T00:31:56.488Z,100437.06
2023-12-11T00:32:28.567Z,100429.94
2023-12-11T00:33:00.603Z,100434.28
2023-12-11T00:33:32.750Z,100431.88
2023-12-11T00:34:06.351Z,100430.09
2023-12-11T00:34:38.605Z,100441.22
2023-12-11T00:35:10.725Z,100431.13
2023-12-11T00:35:42.877Z,100433.81
2023-12-11T00:36:14.957Z,100427.75
2023-12-11T00:36:47.026Z,100427.69
2023-12-11T00:37:19.056Z,100430.16
2023-12-11T00:37:51.124Z,100431.00
2023-12-11T00:38:23.192Z,100434.34
2023-12-11T00:38:55.260Z,100433.81
2023-12-11T00:39:28.004Z,100416.63
2023-12-11T00:40:00.083Z,100418.22
2023-12-11T00:40:32.407Z,100410.31
2023-12-11T00:41:04.846Z,100410.28
2023-12-11T00:41:36.899Z,100406.69
2023-12-11T00:42:09.127Z,100408.44
2023-12-11T00:42:41.392Z,100410.97
2023-12-11T00:43:13.669Z,100413.75
2023-12-11T00:43:46.815Z,100407.59
2023-12-11T00:44:19.247Z,100411.88
2023-12-11T00:44:51.359Z,100406.78
2023-12-11T00:45:23.385Z,100413.63
2023-12-11T00:45:55.658Z,100409.22
2023-12-11T00:46:27.693Z,100402.69
2023-12-11T00:46:59.756Z,100406.00
2023-12-11T00:47:32.270Z,100407.69
2023-12-11T00:48:05.123Z,100405.16
2023-12-11T00:48:37.265Z,100410.31
2023-12-11T00:49:11.048Z,100407.03
2023-12-11T00:49:43.165Z,100409.63
2023-12-11T00:50:15.287Z,100405.34
2023-12-11T00:50:47.484Z,100406.88
2023-12-11T00:51:20.754Z,100401.91
2023-12-11T00:51:52.773Z,100408.97
2023-12-11T00:52:24.904Z,100405.63
2023-12-11T00:52:56.874Z,100403.97
2023-12-11T00:53:28.894Z,100406.56
2023-12-11T00:54:00.928Z,100405.09
2023-12-11T00:54:33.074Z,100405.88
2023-12-11T00:55:06.077Z,100405.94
2023-12-11T00:55:38.175Z,100408.34
2023-12-11T00:56:10.494Z,100405.16
2023-12-11T00:56:42.614Z,100401.66
2023-12-11T00:57:14.842Z,100393.06
2023-12-11T00:57:49.989Z,100391.97
2023-12-11T00:58:22.161Z,100396.22
2023-12-11T00:58:54.207Z,100395.59
2023-12-11T00:59:26.412Z,100400.81
2023-12-11T00:59:58.619Z,100402.66
2023-12-11T01:00:30.764Z,100406.84
2023-12-11T01:01:02.913Z,100397.16
2023-12-11T01:01:35.025Z,100392.72
2023-12-11T01:02:07.148Z,100393.63
2023-12-11T01:02:39.143Z,100400.56
2023-12-11T01:03:11.245Z,100404.13
2023-12-11T01:03:43.514Z,100402.31
2023-12-11T01:04:17.248Z,100392.72
2023-12-11T01:04:49.501Z,100393.56
2023-12-11T01:05:21.577Z,100395.59
2023-12-11T01:05:53.715Z,100395.59
2023-12-11T01:06:25.780Z,100394.75
2023-12-11T01:06:57.902Z,100401.00
2023-12-11T01:07:30.263Z,100403.59
2023-12-11T01:08:02.524Z,100401.84
2023-12-11T01:08:34.677Z,100400.91
2023-12-11T01:09:06.857Z,100405.94
2023-12-11T01:09:38.968Z,100402.44
2023-12-11T01:10:11.160Z,100399.72
2023-12-11T01:10:43.386Z,100406.56
2023-12-11T01:11:15.447Z,100400.78
2023-12-11T01:11:47.452Z,100404.97
2023-12-11T01:12:19.640Z,100397.19
2023-12-11T01:12:51.797Z,100401.47
2023-12-11T01:13:23.903Z,100403.16
2023-12-11T01:13:55.976Z,100402.25
2023-12-11T01:14:28.061Z,100395.59
2023-12-11T01:15:00.113Z,100396.50
2023-12-11T01:15:32.258Z,100400.81
2023-12-11T01:16:05.138Z,100400.13
2023-12-11T01:16:37.204Z,100410.41
2023-12-11T01:17:36.695Z,100398.38
2023-12-11T01:18:01.393Z,100404.97
2023-12-11T01:18:33.655Z,100410.19
2023-12-11T01:19:06.217Z,100408.72
2023-12-11T01:19:40.240Z,100405.25
2023-12-11T01:20:12.842Z,100399.94
2023-12-11T01:20:44.932Z,100399.13
2023-12-11T01:21:17.139Z,100406.09
2023-12-11T01:21:49.198Z,100407.88
2023-12-11T01:22:21.204Z,100407.94
2023-12-11T01:22:53.252Z,100411.38
2023-12-11T01:23:25.296Z,100407.69
2023-12-11T01:23:58.261Z,100410.19
2023-12-11T01:24:30.469Z,100409.25
2023-12-11T01:25:02.572Z,100403.41
2023-12-11T01:25:35.210Z,100404.44
2023-12-11T01:26:07.490Z,100407.13
2023-12-11T01:26:39.850Z,100413.94
2023-12-11T01:27:11.942Z,100406.97
2023-12-11T01:27:44.031Z,100407.81
2023-12-11T01:28:16.274Z,100401.72
2023-12-11T01:28:48.332Z,100410.41
2023-12-11T01:29:20.378Z,100408.88
2023-12-11T01:29:52.452Z,100409.91
2023-12-11T01:30:24.705Z,100401.16
2023-12-11T01:30:56.828Z,100401.84
2023-12-11T01:31:28.874Z,100400.13
2023-12-11T01:32:01.024Z,100409.56
2023-12-11T01:32:33.105Z,100403.50
2023-12-11T01:33:05.379Z,100400.69
2023-12-11T01:33:37.527Z,100397.91
2023-12-11T01:34:09.746Z,100390.00
2023-12-11T01:34:43.486Z,100389.47
2023-12-11T01:35:15.617Z,100389.63
2023-12-11T01:35:47.644Z,100397.16
2023-12-11T01:36:19.634Z,100388.66
2023-12-11T01:36:51.702Z,100382.56
2023-12-11T01:37:23.797Z,100392.03
2023-12-11T01:37:55.866Z,100384.19
2023-12-11T01:38:27.986Z,100387.53
2023-12-11T01:39:00.023Z,100384.91
2023-12-11T01:39:32.030Z,100376.34
2023-12-11T01:40:05.018Z,100378.88
2023-12-11T01:40:37.105Z,100383.91
2023-12-11T01:41:09.094Z,100387.41
2023-12-11T01:41:43.992Z,100382.22
2023-12-11T01:42:16.089Z,100382.31
2023-12-11T01:42:48.372Z,100376.16
2023-12-11T01:43:20.916Z,100379.53
2023-12-11T01:43:53.549Z,100380.44
2023-12-11T01:44:25.784Z,100377.06
2023-12-11T01:44:57.899Z,100377.34
2023-12-11T01:45:30.142Z,100383.28
2023-12-11T01:46:06.380Z,100373.00
2023-12-11T01:46:39.503Z,100378.38
2023-12-11T01:47:11.930Z,100376.63
2023-12-11T01:47:44.260Z,100379.22
2023-12-11T01:48:16.946Z,100383.53
2023-12-11T01:48:50.075Z,100371.44
2023-12-11T01:49:22.357Z,100361.09
2023-12-11T01:49:55.863Z,100371.25
2023-12-11T01:50:28.002Z,100373.06
2023-12-11T01:51:00.502Z,100377.28
2023-12-11T01:51:32.894Z,100368.34
2023-12-11T01:52:07.106Z,100362.25
2023-12-11T01:52:39.702Z,100370.22
2023-12-11T01:53:11.972Z,100371.13
2023-12-11T01:53:45.688Z,100373.91
2023-12-11T01:54:17.865Z,100364.72
2023-12-11T01:54:49.983Z,100368.88
2023-12-11T01:55:22.046Z,100370.41
2023-12-11T01:55:54.732Z,100367.88
2023-12-11T01:56:27.193Z,100369.00
2023-12-11T01:56:59.422Z,100363.69
2023-12-11T01:57:32.152Z,100359.59
2023-12-11T01:58:05.471Z,100366.59
2023-12-11T01:58:38.254Z,100368.16
2023-12-11T01:59:11.195Z,100363.81
2023-12-11T01:59:47.534Z,100362.84
2023-12-11T02:00:21.083Z,100365.47
2023-12-11T02:00:53.396Z,100360.63
2023-12-11T02:01:27.647Z,100360.44
2023-12-11T02:02:00.485Z,100360.31
2023-12-11T02:02:32.542Z,100357.72
2023-12-11T02:03:05.283Z,100359.22
2023-12-11T02:03:38.640Z,100355.91
2023-12-11T02:04:10.888Z,100356.81
2023-12-11T02:04:43.219Z,100362.88
2023-12-11T02:05:16.751Z,100365.44
2023-12-11T02:05:49.735Z,100369.69
2023-12-11T02:06:22.896Z,100372.16
2023-12-11T02:06:55.029Z,100367.13
2023-12-11T02:07:27.296Z,100377.19
2023-12-11T02:07:59.698Z,100374.47
2023-12-11T02:08:31.892Z,100372.66
2023-12-11T02:09:04.022Z,100375.41
2023-12-11T02:09:36.178Z,100373.91
2023-12-11T02:10:09.229Z,100374.03
2023-12-11T02:10:41.412Z,100365.09
2023-12-11T02:11:13.628Z,100365.78
2023-12-11T02:11:47.283Z,100372.72
2023-12-11T02:12:19.588Z,100376.28
2023-12-11T02:12:51.818Z,100368.53
2023-12-11T02:13:23.932Z,100376.09
2023-12-11T02:13:56.135Z,100364.84
2023-12-11T02:14:28.346Z,100368.13
2023-12-11T02:15:00.342Z,100368.47
2023-12-11T02:19:10.104Z,100351.50
2023-12-11T02:19:42.348Z,100358.22
2023-12-11T02:20:15.878Z,100353.91
2023-12-11T02:20:48.150Z,100348.81
2023-12-11T02:21:20.262Z,100345.28
2023-12-11T02:21:53.445Z,100346.13
2023-12-11T02:22:25.924Z,100346.06
2023-12-11T02:23:01.477Z,100341.66
2023-12-11T02:23:48.189Z,100348.72
2023-12-11T02:24:23.815Z,100344.56
2023-12-11T02:25:00.991Z,100350.59
2023-12-11T02:25:36.566Z,100354.88
2023-12-11T02:26:12.192Z,100356.47
2023-12-11T02:26:44.723Z,100358.22
2023-12-11T02:27:16.947Z,100363.22
2023-12-11T02:27:48.998Z,100355.59
2023-12-11T02:28:21.114Z,100356.56
2023-12-11T02:28:53.132Z,100350.41
2023-12-11T02:29:25.183Z,100359.06
2023-12-11T02:29:57.242Z,100348.66
2023-12-11T02:30:32.625Z,100353.84
2023-12-11T02:31:05.625Z,100351.16
2023-12-11T02:31:38.682Z,100353.69
2023-12-11T02:32:10.819Z,100351.81
2023-12-11T02:32:42.872Z,100354.59
2023-12-11T02:33:15.158Z,100355.63
2023-12-11T02:33:47.236Z,100353.03
2023-12-11T02:34:19.348Z,100361.75
2023-12-11T02:34:51.463Z,100347.94
2023-12-11T02:35:23.488Z,100345.38
2023-12-11T02:35:55.823Z,100344.31
2023-12-11T02:36:28.055Z,100346.91
2023-12-11T02:37:00.202Z,100342.50
2023-12-11T02:37:32.532Z,100337.25
2023-12-11T02:38:04.712Z,100346.22
2023-12-11T02:38:36.832Z,100341.94
2023-12-11T02:39:08.942Z,100349.06
2023-12-11T02:39:41.427Z,100337.84
2023-12-11T02:40:13.707Z,100340.53
2023-12-11T02:40:45.726Z,100336.09
2023-12-11T02:41:19.184Z,100339.41
2023-12-11T02:41:51.285Z,100335.00
2023-12-11T02:42:23.284Z,100337.31
2023-12-11T02:42:55.537Z,100338.34
2023-12-11T02:43:27.644Z,100326.19
2023-12-11T02:44:00.433Z,100335.63
2023-12-11T02:44:32.572Z,100330.44
2023-12-11T02:45:05.617Z,100326.00
2023-12-11T02:45:37.764Z,100329.50
2023-12-11T02:46:12.852Z,100324.16
2023-12-11T02:46:44.954Z,100325.00
2023-12-11T02:47:16.956Z,100331.03
2023-12-11T02:47:49.061Z,100330.94
2023-12-11T02:48:21.504Z,100332.78
2023-12-11T02:48:53.777Z,100327.84
2023-12-11T02:49:26.153Z,100329.75
2023-12-11T02:49:58.230Z,100331.50
2023-12-11T02:50:30.313Z,100328.84
2023-12-11T02:51:02.484Z,100325.41
2023-12-11T02:51:34.985Z,100327.25
2023-12-11T02:52:07.401Z,100321.22
2023-12-11T02:52:39.420Z,100326.41
2023-12-11T02:53:11.447Z,100323.16
2023-12-11T02:53:43.966Z,100314.63
2023-12-11T02:54:16.086Z,100323.66
2023-12-11T02:54:48.282Z,100323.88
2023-12-11T02:55:20.381Z,100324.66
2023-12-11T02:55:52.401Z,100317.78
2023-12-11T02:56:25.752Z,100314.31
2023-12-11T02:56:57.801Z,100322.13
2023-12-11T02:57:30.322Z,100317.84
2023-12-11T02:58:04.053Z,100320.31
2023-12-11T02:58:36.189Z,100319.28
2023-12-11T02:59:08.240Z,100314.22
2023-12-11T02:59:40.301Z,100324.16
2023-12-11T03:00:12.441Z,100324.66
2023-12-11T03:00:44.798Z,100327.34
2023-12-11T03:01:17.154Z,100325.56
2023-12-11T03:01:49.518Z,100330.69
2023-12-11T03:02:21.658Z,100327.16
2023-12-11T03:02:54.162Z,100328.84
2023-12-11T03:03:26.325Z,100334.81
2023-12-11T03:03:58.409Z,100332.34
2023-12-11T03:04:30.536Z,100326.19
2023-12-11T03:05:02.654Z,100327.09
2023-12-11T03:05:34.885Z,100324.31
2023-12-11T03:06:07.538Z,100323.28
2023-12-11T03:06:39.623Z,100315.69
2023-12-11T03:07:11.729Z,100315.97
2023-12-11T03:07:43.914Z,100316.75
2023-12-11T03:08:15.964Z,100315.19
2023-12-11T03:08:48.023Z,100320.31
2023-12-11T03:09:20.009Z,100316.94
2023-12-11T03:09:53.848Z,100312.66
2023-12-11T03:10:26.368Z,100309.72
2023-12-11T03:10:59.281Z,100307.16
2023-12-11T03:11:32.841Z,100308.63
2023-12-11T03:12:05.359Z,100298.47
2023-12-11T03:12:37.735Z,100297.53
2023-12-11T03:13:10.001Z,100296.59
2023-12-11T03:13:42.124Z,100302.34
2023-12-11T03:14:14.221Z,100306.53
2023-12-11T03:14:46.229Z,100303.13
2023-12-11T03:15:18.288Z,100292.75
2023-12-11T03:15:50.720Z,100297.88
2023-12-11T03:16:22.859Z,100297.03
2023-12-11T03:16:55.006Z,100291.91
2023-12-11T03:17:27.295Z,100289.25
2023-12-11T03:17:59.523Z,100289.97
2023-12-11T03:18:31.813Z,100282.13
2023-12-11T03:19:04.194Z,100284.63
2023-12-11T03:19:36.445Z,100284.63
2023-12-11T03:20:11.094Z,100298.44
2023-12-11T03:20:43.089Z,100302.91
2023-12-11T03:21:15.270Z,100302.00
2023-12-11T03:21:47.318Z,100310.53
2023-12-11T03:22:20.906Z,100308.09
2023-12-11T03:22:54.860Z,100312.44
2023-12-11T03:23:26.862Z,100309.69
2023-12-11T03:23:58.873Z,100318.31
2023-12-11T03:24:31.084Z,100312.91
2023-12-11T03:25:03.341Z,100310.53
2023-12-11T03:25:35.482Z,100309.47
2023-12-11T03:26:07.458Z,100309.13
2023-12-11T03:26:41.298Z,100307.09
2023-12-11T03:27:13.352Z,100312.22
2023-12-11T03:27:45.464Z,100312.97
2023-12-11T03:28:17.526Z,100312.06
2023-12-11T03:28:49.592Z,100314.75
2023-12-11T03:29:21.657Z,100317.34
2023-12-11T03:29:53.745Z,100317.25
2023-12-11T03:30:25.901Z,100319.16
2023-12-11T03:30:58.103Z,100317.47
2023-12-11T03:31:30.264Z,100322.44
2023-12-11T03:32:02.280Z,100324.28
2023-12-11T03:32:34.371Z,100316.41
2023-12-11T03:33:06.488Z,100330.22
2023-12-11T03:33:38.784Z,100322.38
2023-12-11T03:34:10.986Z,100319.66
2023-12-11T03:34:43.528Z,100317.06
2023-12-11T03:35:15.683Z,100319.84
2023-12-11T03:35:47.830Z,100316.41
2023-12-11T03:36:19.937Z,100314.75
2023-12-11T03:36:52.111Z,100308.72
2023-12-11T03:37:24.720Z,100312.06
2023-12-11T03:37:56.784Z,100317.25
2023-12-11T03:38:28.852Z,100315.56
2023-12-11T03:39:00.891Z,100316.41
2023-12-11T03:39:32.999Z,100318.25
2023-12-11T03:40:06.182Z,100316.91
2023-12-11T03:40:40.849Z,100312.38
2023-12-11T03:41:12.881Z,100317.41
2023-12-11T03:41:46.492Z,100312.22
2023-12-11T03:42:18.799Z,100313.75
2023-12-11T03:42:51.058Z,100311.19
2023-12-11T03:43:23.131Z,100309.44
2023-12-11T03:43:55.148Z,100306.00
2023-12-11T03:44:27.302Z,100309.34
2023-12-11T03:44:59.304Z,100312.00
2023-12-11T03:45:31.661Z,100310.28
2023-12-11T03:46:04.105Z,100306.97
2023-12-11T03:46:36.136Z,100304.31
2023-12-11T03:47:08.257Z,100313.81
2023-12-11T03:47:40.424Z,100311.38
2023-12-11T03:48:12.554Z,100304.50
2023-12-11T03:48:44.892Z,100312.00
2023-12-11T03:49:17.165Z,100320.75
2023-12-11T03:49:49.289Z,100321.75
2023-12-11T03:50:21.431Z,100321.88
2023-12-11T03:50:53.998Z,100320.97
2023-12-11T03:51:26.030Z,100320.03
2023-12-11T03:51:58.138Z,100326.91
2023-12-11T03:52:30.348Z,100333.63
2023-12-11T03:53:02.414Z,100333.44
2023-12-11T03:53:34.540Z,100338.69
2023-12-11T03:54:06.594Z,100343.94
2023-12-11T03:54:38.680Z,100349.88
2023-12-11T03:55:11.177Z,100343.81
2023-12-11T03:55:43.311Z,100343.00
2023-12-11T03:56:15.513Z,100336.03
2023-12-11T03:56:49.152Z,100336.03
2023-12-11T03:57:21.238Z,100335.03
2023-12-11T03:57:53.292Z,100333.38
2023-12-11T03:58:26.984Z,100322.03
2023-12-11T03:58:59.117Z,100317.69
2023-12-11T03:59:31.123Z,100318.66
2023-12-11T04:00:03.322Z,100314.41
2023-12-11T04:00:35.434Z,100308.28
2023-12-11T04:01:07.605Z,100311.81
2023-12-11T04:01:39.793Z,100311.66
2023-12-11T04:02:12.172Z,100304.03
2023-12-11T04:02:44.598Z,100308.22
2023-12-11T04:03:16.739Z,100311.81
2023-12-11T04:03:48.991Z,100307.53
2023-12-11T04:04:21.130Z,100298.78
2023-12-11T04:04:53.227Z,100298.91
2023-12-11T04:05:25.228Z,100303.91
2023-12-11T04:05:57.343Z,100299.75
2023-12-11T04:06:29.444Z,100299.72
2023-12-11T04:07:01.565Z,100303.00
2023-12-11T04:07:33.621Z,100303.00
2023-12-11T04:08:06.094Z,100309.06
2023-12-11T04:08:41.082Z,100296.06
2023-12-11T04:09:13.278Z,100299.34
2023-12-11T04:09:45.337Z,100301.25
2023-12-11T04:10:17.503Z,100298.78
2023-12-11T04:10:49.500Z,100309.34
2023-12-11T04:11:21.690Z,100315.25
2023-12-11T04:11:55.190Z,100308.22
2023-12-11T04:12:27.173Z,100314.31
2023-12-11T04:13:01.228Z,100311.81
2023-12-11T04:13:33.298Z,100299.63
2023-12-11T04:14:05.484Z,100302.28
2023-12-11T04:14:37.467Z,100311.19
2023-12-11T04:15:10.055Z,100304.25
2023-12-11T04:15:42.236Z,100304.16
2023-12-11T04:16:14.370Z,100305.94
2023-12-11T04:16:46.602Z,100312.22
2023-12-11T04:17:18.702Z,100305.16
2023-12-11T04:17:50.942Z,100305.94
2023-12-11T04:18:23.041Z,100298.06
2023-12-11T04:18:58.487Z,100293.88
2023-12-11T04:19:32.522Z,100304.09
2023-12-11T04:20:05.552Z,100297.16
2023-12-11T04:20:37.662Z,100307.69
2023-12-11T04:21:09.655Z,100298.03
2023-12-11T04:21:42.144Z,100310.19
2023-12-11T04:22:14.688Z,100300.59
2023-12-11T04:22:46.728Z,100309.22
2023-12-11T04:23:19.292Z,100306.69
2023-12-11T04:23:51.314Z,100306.00
2023-12-11T04:24:23.309Z,100310.19
2023-12-11T04:24:55.439Z,100315.50
2023-12-11T04:25:27.477Z,100308.94
2023-12-11T04:26:00.162Z,100305.50
2023-12-11T04:26:32.463Z,100306.00
2023-12-11T04:27:06.034Z,100298.16
2023-12-11T04:27:38.121Z,100308.44
2023-12-11T04:28:10.804Z,100310.28
2023-12-11T04:28:42.870Z,100312.00
2023-12-11T04:29:14.923Z,100295.44
2023-12-11T04:29:46.929Z,100295.34
2023-12-11T04:30:19.050Z,100289.34
2023-12-11T04:30:51.108Z,100287.72
2023-12-11T04:31:23.350Z,100285.28
2023-12-11T04:31:55.586Z,100279.94
2023-12-11T04:32:27.802Z,100282.53
2023-12-11T04:33:00.018Z,100281.78
2023-12-11T04:33:32.216Z,100280.16
2023-12-11T04:34:04.568Z,100273.53
2023-12-11T04:34:36.677Z,100276.94
2023-12-11T04:35:09.118Z,100286.72
2023-12-11T04:35:41.318Z,100285.81
2023-12-11T04:36:13.374Z,100280.50
2023-12-11T04:36:45.670Z,100297.59
2023-12-11T04:37:17.757Z,100290.75
2023-12-11T04:37:49.756Z,100275.41
2023-12-11T04:38:21.756Z,100282.25
2023-12-11T04:38:53.772Z,100285.69
2023-12-11T04:39:25.911Z,100288.41
2023-12-11T04:39:57.963Z,100288.47
2023-12-11T04:40:30.144Z,100294.50
2023-12-11T04:41:02.270Z,100293.59
2023-12-11T04:41:34.419Z,100290.31
2023-12-11T04:42:07.873Z,100294.59
2023-12-11T04:42:40.141Z,100300.66
2023-12-11T04:43:12.389Z,100300.53
2023-12-11T04:43:44.526Z,100302.22
2023-12-11T04:44:16.646Z,100304.66
2023-12-11T04:44:48.868Z,100308.94
2023-12-11T04:45:21.023Z,100304.59
2023-12-11T04:45:53.325Z,100298.56
2023-12-11T04:46:25.400Z,100307.09
2023-12-11T04:46:57.501Z,100302.25
2023-12-11T04:47:30.152Z,100307.53
2023-12-11T04:48:02.578Z,100307.25
2023-12-11T04:48:34.874Z,100304.59
2023-12-11T04:49:07.362Z,100303.75
2023-12-11T04:49:40.186Z,100307.34
2023-12-11T04:50:12.318Z,100317.59
2023-12-11T04:50:44.364Z,100310.47
2023-12-11T04:51:16.524Z,100310.47
2023-12-11T04:51:48.634Z,100301.31
2023-12-11T04:52:20.661Z,100300.53
2023-12-11T04:52:52.717Z,100307.44
2023-12-11T04:53:24.735Z,100313.41
2023-12-11T04:53:56.895Z,100309.94
2023-12-11T04:54:29.108Z,100305.50
2023-12-11T04:55:01.215Z,100314.13
2023-12-11T04:55:33.366Z,100309.84
2023-12-11T04:56:09.445Z,100310.72
2023-12-11T04:56:41.550Z,100315.84
2023-12-11T04:57:15.360Z,100312.38
2023-12-11T04:57:47.677Z,100317.53
2023-12-11T04:58:19.790Z,100321.19
2023-12-11T04:58:51.921Z,100315.16
2023-12-11T04:59:26.940Z,100310.31
2023-12-11T04:59:58.940Z,100314.72
2023-12-11T05:00:31.171Z,100311.44
2023-12-11T05:01:03.600Z,100322.44
2023-12-11T05:01:35.898Z,100325.06
2023-12-11T05:02:08.258Z,100321.59
2023-12-11T05:02:40.288Z,100325.00
2023-12-11T05:03:12.563Z,100321.78
2023-12-11T05:03:44.806Z,100320.94
2023-12-11T05:04:16.914Z,100323.41
2023-12-11T05:04:49.073Z,100320.75
2023-12-11T05:05:21.235Z,100323.31
2023-12-11T05:05:53.372Z,100322.78
2023-12-11T05:06:25.442Z,100312.31
2023-12-11T05:06:57.551Z,100322.56
2023-12-11T05:07:29.832Z,100317.44
2023-12-11T05:08:01.977Z,100321.59
2023-12-11T05:08:34.225Z,100315.50
2023-12-11T05:09:06.436Z,100315.31
2023-12-11T05:09:38.632Z,100315.31
2023-12-11T05:10:11.124Z,100322.97
2023-12-11T05:10:43.326Z,100312.00
2023-12-11T05:11:15.390Z,100317.44
2023-12-11T05:11:47.404Z,100320.94
2023-12-11T05:12:20.822Z,100315.50
2023-12-11T05:12:52.936Z,100312.00
2023-12-11T05:13:24.936Z,100311.78
2023-12-11T05:13:57.015Z,100309.13
2023-12-11T05:14:29.128Z,100303.91
2023-12-11T05:15:01.219Z,100300.25
2023-12-11T05:15:33.520Z,100300.38
2023-12-11T05:16:06.311Z,100293.75
2023-12-11T05:16:38.600Z,100293.03
2023-12-11T05:17:10.831Z,100300.03
2023-12-11T05:17:42.964Z,100299.88
2023-12-11T05:18:15.135Z,100301.91
2023-12-11T05:18:47.371Z,100296.59
2023-12-11T05:19:19.651Z,100298.28
2023-12-11T05:19:51.745Z,100295.34
2023-12-11T05:20:23.811Z,100300.63
2023-12-11T05:20:56.018Z,100295.69
2023-12-11T05:21:28.071Z,100304.25
2023-12-11T05:22:03.636Z,100297.44
2023-12-11T05:22:35.724Z,100296.38
2023-12-11T05:23:07.794Z,100299.88
2023-12-11T05:23:39.889Z,100296.38
2023-12-11T05:24:12.749Z,100296.59
2023-12-11T05:24:44.883Z,100292.75
2023-12-11T05:25:16.998Z,100288.41
2023-12-11T05:25:49.060Z,100285.88
2023-12-11T05:26:21.412Z,100279.25
2023-12-11T05:26:55.366Z,100280.84
2023-12-11T05:27:29.058Z,100278.34
2023-12-11T05:28:01.385Z,100287.44
2023-12-11T05:28:33.535Z,100292.59
2023-12-11T05:29:06.225Z,100285.13
2023-12-11T05:29:38.328Z,100300.53
2023-12-11T05:30:10.911Z,100300.53
2023-12-11T05:30:42.965Z,100296.97
2023-12-11T05:31:15.414Z,100294.28
2023-12-11T05:31:47.724Z,100290.66
2023-12-11T05:32:19.818Z,100285.47
2023-12-11T05:32:51.956Z,100287.38
2023-12-11T05:33:24.371Z,100280.44
2023-12-11T05:33:56.623Z,100279.53
2023-12-11T05:34:28.736Z,100280.50
2023-12-11T05:35:00.991Z,100280.28
2023-12-11T05:35:33.040Z,100281.19
2023-12-11T05:36:06.078Z,100289.31
2023-12-11T05:36:38.170Z,100288.34
2023-12-11T05:37:10.513Z,100294.50
2023-12-11T05:37:42.682Z,100287.66
2023-12-11T05:38:14.787Z,100291.00
2023-12-11T05:38:49.809Z,100281.19
2023-12-11T05:39:21.838Z,100285.31
2023-12-11T05:40:01.228Z,100277.50
2023-12-11T05:40:45.973Z,100266.25
2023-12-11T05:41:18.448Z,100271.63
2023-12-11T05:41:50.479Z,100268.34
2023-12-11T05:42:22.565Z,100274.41
2023-12-11T05:42:56.192Z,100264.91
2023-12-11T05:43:28.219Z,100273.38
2023-12-11T05:44:00.269Z,100270.72
2023-12-11T05:44:32.272Z,100260.28
2023-12-11T05:45:05.155Z,100260.56
2023-12-11T05:45:37.249Z,100252.66
2023-12-11T05:46:09.454Z,100262.09
2023-12-11T05:46:41.715Z,100251.06
2023-12-11T05:47:13.937Z,100260.41
2023-12-11T05:47:46.199Z,100251.53
2023-12-11T05:48:18.301Z,100248.84
2023-12-11T05:48:50.464Z,100248.09
2023-12-11T05:49:22.647Z,100249.00
2023-12-11T05:49:54.865Z,100249.00
2023-12-11T05:50:27.032Z,100250.91
2023-12-11T05:50:59.247Z,100241.59
2023-12-11T05:51:31.464Z,100248.38
2023-12-11T05:52:03.952Z,100252.81
2023-12-11T05:52:36.044Z,100256.44
2023-12-11T05:53:08.382Z,100254.81
2023-12-11T05:53:40.577Z,100272.88
2023-12-11T05:54:12.629Z,100280.94
2023-12-11T05:54:44.708Z,100296.72
2023-12-11T05:55:16.928Z,100293.66
2023-12-11T05:55:49.090Z,100297.28
2023-12-11T05:56:21.097Z,100301.91
2023-12-11T05:56:53.164Z,100309.31
2023-12-11T05:57:25.785Z,100325.00
2023-12-11T05:57:59.242Z,100325.94
2023-12-11T05:58:31.251Z,100326.03
2023-12-11T05:59:03.463Z,100325.31
2023-12-11T05:59:35.606Z,100321.47
2023-12-11T06:00:08.939Z,100319.47
2023-12-11T06:00:41.385Z,100316.53
2023-12-11T06:01:13.614Z,100316.41
2023-12-11T06:01:45.934Z,100316.34
2023-12-11T06:02:18.066Z,100312.72
2023-12-11T06:02:50.153Z,100313.41
2023-12-11T06:03:22.164Z,100304.66
2023-12-11T06:03:54.216Z,100295.84
2023-12-11T06:04:26.252Z,100293.41
2023-12-11T06:04:58.281Z,100298.44
2023-12-11T06:05:30.267Z,100304.31
2023-12-11T06:06:02.370Z,100291.28
2023-12-11T06:06:34.450Z,100292.19
2023-12-11T06:07:06.542Z,100290.41
2023-12-11T06:07:38.609Z,100292.97
2023-12-11T06:08:10.680Z,100293.94
2023-12-11T06:08:42.749Z,100295.56
2023-12-11T06:09:15.021Z,100285.13
2023-12-11T06:09:47.120Z,100283.44
2023-12-11T06:10:19.222Z,100287.81
2023-12-11T06:10:51.388Z,100274.13
2023-12-11T06:11:23.382Z,100279.19
2023-12-11T06:11:55.400Z,100277.16
2023-12-11T06:12:27.520Z,100279.59
2023-12-11T06:13:00.995Z,100277.63
2023-12-11T06:13:33.070Z,100276.63
2023-12-11T06:14:05.137Z,100276.56